Time;durP1;ratioP1;P1;durP2;ratioP2;P2;SDS_P1;SDS_P2;PMS_P1;PMS_P2;Temp;Humidity;BMP_temperature;BMP_pressure;BME280_temperature;BME280_humidity;BME280_pressure;Samples;Min_cycle;Max_cycle;Signal;HPM_P1;HPM_P2
2022/03/17 00:02:05;;;;;;;8.13;1.42;;;8.70;94.40;;;;;;5130375;27;20023;-85
2022/03/17 00:04:31;;;;;;;6.88;1.15;;;8.70;94.40;;;;;;5131421;27;20079;-86
2022/03/17 00:06:58;;;;;;;5.47;1.25;;;8.80;94.40;;;;;;5131414;27;20391;-86
2022/03/17 00:09:24;;;;;;;7.03;1.50;;;8.80;94.50;;;;;;5133118;27;20031;-86
2022/03/17 00:11:51;;;;;;;7.78;1.23;;;8.80;94.40;;;;;;5131099;27;20027;-85
2022/03/17 00:14:16;;;;;;;6.22;1.40;;;8.90;94.40;;;;;;5128392;27;20022;-86
2022/03/17 00:16:42;;;;;;;4.43;1.05;;;8.80;94.30;;;;;;5130857;27;20039;-86
2022/03/17 00:19:08;;;;;;;6.43;1.30;;;8.80;94.10;;;;;;5112826;27;20038;-86
2022/03/17 00:21:38;;;;;;;6.15;1.13;;;8.80;94.10;;;;;;5133006;27;20015;-87
2022/03/17 00:24:08;;;;;;;4.25;0.90;;;8.80;94.00;;;;;;5132373;27;20019;-87
2022/03/17 00:26:35;;;;;;;7.45;1.30;;;8.80;94.00;;;;;;5112463;27;20031;-87
2022/03/17 00:29:08;;;;;;;7.47;1.27;;;8.70;94.00;;;;;;5131241;27;20084;-87
2022/03/17 00:31:37;;;;;;;3.25;0.85;;;8.70;94.00;;;;;;5130773;27;20068;-88
2022/03/17 00:34:04;;;;;;;4.45;0.80;;;8.70;94.10;;;;;;5110789;27;20031;-87
2022/03/17 00:36:33;;;;;;;4.70;0.90;;;8.70;94.00;;;;;;5133333;27;20108;-87
2022/03/17 00:38:58;;;;;;;8.05;1.10;;;8.70;94.00;;;;;;5131923;27;20088;-89
2022/03/17 00:41:24;;;;;;;6.05;0.82;;;8.70;94.10;;;;;;5132105;27;20023;-88
2022/03/17 00:43:50;;;;;;;3.35;1.00;;;8.70;93.80;;;;;;5130774;27;20039;-84
2022/03/17 00:46:15;;;;;;;4.05;0.95;;;8.70;93.70;;;;;;5130331;27;20531;-84
2022/03/17 00:48:41;;;;;;;5.55;1.45;;;8.60;93.70;;;;;;5131562;27;20031;-84
2022/03/17 00:51:06;;;;;;;4.05;1.00;;;8.60;93.70;;;;;;5131739;27;20050;-85
2022/03/17 00:53:32;;;;;;;5.70;1.00;;;8.50;93.60;;;;;;5130881;27;20106;-84
2022/03/17 00:55:57;;;;;;;5.70;1.00;;;8.50;93.60;;;;;;5130450;27;20403;-84
2022/03/17 00:58:23;;;;;;;8.88;1.42;;;8.50;93.60;;;;;;5130565;27;20491;-84
2022/03/17 01:00:49;;;;;;;5.25;0.98;;;8.50;93.50;;;;;;5130175;28;20038;-85
2022/03/17 01:03:15;;;;;;;3.78;0.77;;;8.50;93.50;;;;;;5132414;28;20495;-85
2022/03/17 01:05:41;;;;;;;8.18;1.00;;;8.40;93.40;;;;;;5112242;28;20062;-85
2022/03/17 01:08:07;;;;;;;5.22;1.00;;;8.50;93.20;;;;;;5130426;27;20372;-85
2022/03/17 01:10:33;;;;;;;4.90;1.02;;;8.40;93.20;;;;;;5130459;28;20120;-85
2022/03/17 01:13:01;;;;;;;4.60;0.77;;;8.40;93.20;;;;;;5133399;27;20508;-85
2022/03/17 01:15:29;;;;;;;4.05;0.98;;;8.40;93.20;;;;;;5136406;27;20024;-85
2022/03/17 01:17:55;;;;;;;7.90;1.02;;;8.40;93.10;;;;;;5115955;27;20491;-85
2022/03/17 01:22:56;;;;;;;6.15;0.80;;;8.30;92.90;;;;;;4797817;22;20055;-76
2022/03/17 01:25:22;;;;;;;4.55;0.98;;;8.30;93.10;;;;;;5047385;28;20078;-77
2022/03/17 01:27:47;;;;;;;7.35;1.15;;;8.30;93.10;;;;;;5055384;28;20025;-77
2022/03/17 01:30:13;;;;;;;7.53;1.10;;;8.40;93.10;;;;;;5058671;28;20025;-78
2022/03/17 01:32:39;;;;;;;8.63;0.93;;;8.30;92.80;;;;;;5059573;28;20412;-77
2022/03/17 01:35:07;;;;;;;4.25;0.65;;;8.30;92.80;;;;;;5054976;28;20025;-77
2022/03/17 01:37:33;;;;;;;5.78;0.88;;;8.30;92.90;;;;;;5054886;28;20033;-78
2022/03/17 01:39:59;;;;;;;3.85;1.00;;;8.30;92.70;;;;;;5067105;28;20017;-77
2022/03/17 01:42:25;;;;;;;4.80;1.02;;;8.30;92.70;;;;;;5054858;28;20025;-78
2022/03/17 01:44:50;;;;;;;6.07;1.00;;;8.30;92.70;;;;;;5054665;28;20060;-77
2022/03/17 01:47:28;;;;;;;8.75;1.23;;;8.20;92.60;;;;;;5054847;28;20048;-77
2022/03/17 01:49:55;;;;;;;6.55;1.02;;;8.20;92.50;;;;;;5054671;28;20416;-77
2022/03/17 01:52:20;;;;;;;9.18;0.93;;;8.20;92.60;;;;;;5054370;28;20512;-77
2022/03/17 01:54:46;;;;;;;5.82;1.17;;;8.20;92.60;;;;;;5055399;28;20025;-77
2022/03/17 01:57:12;;;;;;;5.88;1.20;;;8.20;92.60;;;;;;5054379;28;20048;-76
2022/03/17 01:59:40;;;;;;;5.63;1.08;;;8.10;92.60;;;;;;5054732;28;20028;-76
2022/03/17 02:02:07;;;;;;;5.32;1.02;;;8.20;92.50;;;;;;5048791;28;20397;-77
2022/03/17 02:04:35;;;;;;;3.13;0.88;;;8.20;92.70;;;;;;5054595;28;20056;-77
2022/03/17 02:07:03;;;;;;;7.03;1.10;;;8.20;92.50;;;;;;5054215;28;20132;-76
2022/03/17 02:09:29;;;;;;;8.20;1.00;;;8.20;92.50;;;;;;5052963;28;20017;-77
2022/03/17 02:14:51;;;;;;;4.55;1.00;;;8.20;92.50;;;;;;5018159;28;20092;-77
2022/03/17 02:17:17;;;;;;;4.32;1.40;;;8.20;92.50;;;;;;5013917;28;20034;-77
2022/03/17 02:19:42;;;;;;;6.85;1.00;;;8.20;92.40;;;;;;5012919;28;20047;-78
2022/03/17 02:22:12;;;;;;;5.10;1.02;;;8.10;92.40;;;;;;5011160;28;20037;-77
2022/03/17 02:27:25;;;;;;;7.07;1.20;;;8.10;92.40;;;;;;5016585;28;20390;-77
2022/03/17 02:29:51;;;;;;;4.45;0.98;;;8.00;92.10;;;;;;5013650;28;20026;-76
2022/03/17 02:32:17;;;;;;;7.75;1.23;;;8.10;92.10;;;;;;5013396;28;20486;-78
2022/03/17 02:34:44;;;;;;;6.43;1.10;;;8.00;92.00;;;;;;5004475;28;20116;-78
2022/03/17 02:37:12;;;;;;;4.57;0.88;;;8.00;92.30;;;;;;5011262;28;20032;-77
2022/03/17 02:39:38;;;;;;;6.07;1.02;;;8.00;92.00;;;;;;5016112;28;20034;-76
2022/03/17 02:42:05;;;;;;;8.10;1.38;;;8.00;91.90;;;;;;5015300;28;20030;-76
2022/03/17 02:44:32;;;;;;;8.25;1.45;;;8.00;91.90;;;;;;5013614;28;20033;-78
2022/03/17 02:46:58;;;;;;;3.58;0.98;;;8.00;91.90;;;;;;5013622;28;20038;-76
2022/03/17 02:49:24;;;;;;;6.93;1.30;;;8.00;92.00;;;;;;5009575;28;20494;-76
2022/03/17 02:51:50;;;;;;;4.07;1.08;;;7.90;91.90;;;;;;5037597;28;20040;-76
2022/03/17 02:54:15;;;;;;;5.03;1.00;;;7.90;91.80;;;;;;5053401;28;20079;-79
2022/03/17 02:56:41;;;;;;;7.68;1.10;;;7.90;91.80;;;;;;5052297;28;20374;-79
2022/03/17 02:59:07;;;;;;;4.97;1.13;;;7.90;91.70;;;;;;5053511;28;20099;-79
2022/03/17 03:01:32;;;;;;;6.45;0.93;;;7.90;91.50;;;;;;5052401;28;20033;-79
2022/03/17 03:03:58;;;;;;;5.38;0.90;;;7.90;91.60;;;;;;5052053;28;20464;-79
2022/03/17 03:06:24;;;;;;;4.88;0.90;;;7.80;91.60;;;;;;5052955;28;20025;-78
2022/03/17 03:08:49;;;;;;;5.00;0.95;;;7.80;91.50;;;;;;5052803;28;20021;-77
2022/03/17 03:11:15;;;;;;;2.85;0.90;;;7.80;91.50;;;;;;5051396;28;20041;-77
2022/03/17 03:13:41;;;;;;;5.88;1.00;;;7.80;91.50;;;;;;5052706;28;20029;-76
2022/03/17 03:16:06;;;;;;;8.55;1.15;;;7.80;91.60;;;;;;5053186;28;20033;-77
2022/03/17 03:18:32;;;;;;;6.28;0.82;;;7.70;91.50;;;;;;5052923;28;20025;-77
2022/03/17 03:20:57;;;;;;;6.90;0.93;;;7.70;91.20;;;;;;5052933;28;20112;-77
2022/03/17 03:23:23;;;;;;;7.55;1.30;;;7.70;91.40;;;;;;5051586;28;20142;-78
2022/03/17 03:25:49;;;;;;;5.72;0.90;;;7.70;91.80;;;;;;5053182;28;20025;-77
2022/03/17 03:28:15;;;;;;;3.38;0.90;;;7.70;91.40;;;;;;5051700;28;20032;-78
2022/03/17 03:30:40;;;;;;;6.65;0.88;;;7.60;91.30;;;;;;5053635;28;20021;-78
2022/03/17 03:33:09;;;;;;;5.57;1.00;;;7.60;91.20;;;;;;5052350;28;20496;-78
2022/03/17 03:38:20;;;;;;;4.55;0.77;;;7.60;91.20;;;;;;5053093;28;20047;-78
2022/03/17 03:40:46;;;;;;;4.80;1.20;;;7.60;91.30;;;;;;5052901;28;20025;-78
2022/03/17 03:43:12;;;;;;;6.88;1.02;;;7.60;91.30;;;;;;5051603;28;20408;-78
2022/03/17 03:45:38;;;;;;;3.10;0.93;;;7.60;91.20;;;;;;5053198;28;20029;-77
2022/03/17 03:48:04;;;;;;;4.65;0.80;;;7.50;91.20;;;;;;5052150;28;20036;-77
2022/03/17 03:50:30;;;;;;;5.22;1.10;;;7.50;91.10;;;;;;5052488;28;20021;-77
2022/03/17 03:52:57;;;;;;;7.38;1.20;;;7.50;91.00;;;;;;5052402;28;20033;-78
2022/03/17 03:55:23;;;;;;;5.28;1.20;;;7.50;91.60;;;;;;5052603;28;20108;-78
2022/03/17 03:57:49;;;;;;;8.15;1.55;;;7.50;91.20;;;;;;5052981;28;20463;-79
2022/03/17 04:02:57;;;;;;;4.15;0.85;;;7.50;91.10;;;;;;5051998;28;20463;-77
2022/03/17 04:05:26;;;;;;;7.70;1.15;;;7.50;91.20;;;;;;5050915;28;20060;-78
2022/03/17 04:07:52;;;;;;;3.78;0.80;;;7.40;91.20;;;;;;5052261;28;20036;-78
2022/03/17 04:10:18;;;;;;;6.57;1.10;;;7.40;91.20;;;;;;5052489;28;20024;-78
2022/03/17 04:12:44;;;;;;;3.30;0.77;;;7.40;91.20;;;;;;5048430;28;20037;-77
2022/03/17 04:15:09;;;;;;;4.53;0.85;;;7.40;91.70;;;;;;5046461;28;20491;-77
2022/03/17 04:17:35;;;;;;;5.53;0.80;;;7.30;91.20;;;;;;5051688;28;20028;-77
2022/03/17 04:20:01;;;;;;;8.55;0.95;;;7.30;91.20;;;;;;5051993;28;20025;-77
2022/03/17 04:22:27;;;;;;;5.30;0.93;;;7.30;91.20;;;;;;5051884;28;20060;-78
2022/03/17 04:24:53;;;;;;;4.72;0.82;;;7.30;91.30;;;;;;5052263;28;20045;-77
2022/03/17 04:27:19;;;;;;;5.65;0.70;;;7.30;91.30;;;;;;5052424;28;20029;-77
2022/03/17 04:29:45;;;;;;;6.90;1.00;;;7.30;91.20;;;;;;5051894;28;20032;-77
2022/03/17 04:32:10;;;;;;;5.32;0.95;;;7.30;91.20;;;;;;5051367;28;20496;-77
2022/03/17 04:34:36;;;;;;;4.95;0.82;;;7.20;91.30;;;;;;5052048;28;20407;-77
2022/03/17 04:37:02;;;;;;;3.53;0.65;;;7.20;91.30;;;;;;5051932;28;20112;-77
2022/03/17 04:39:27;;;;;;;4.43;0.98;;;7.20;91.30;;;;;;5052255;28;20473;-77
2022/03/17 04:41:53;;;;;;;4.50;0.80;;;7.20;91.40;;;;;;5051665;28;20433;-77
2022/03/17 04:44:18;;;;;;;7.40;1.00;;;7.20;91.80;;;;;;5051718;28;20027;-77
2022/03/17 04:46:46;;;;;;;3.97;1.00;;;7.20;91.40;;;;;;5050979;28;20021;-77
2022/03/17 04:49:12;;;;;;;4.72;0.95;;;7.10;91.40;;;;;;5051621;28;20112;-76
2022/03/17 04:51:37;;;;;;;6.05;0.75;;;7.10;91.40;;;;;;5052183;28;20564;-77
2022/03/17 04:54:03;;;;;;;7.90;1.00;;;7.10;91.40;;;;;;5051476;28;20369;-78
2022/03/17 04:56:29;;;;;;;5.00;1.00;;;7.10;91.40;;;;;;5051551;28;20025;-78
2022/03/17 04:58:55;;;;;;;4.47;0.70;;;7.10;91.40;;;;;;5051554;28;20025;-78
2022/03/17 05:01:20;;;;;;;3.08;0.70;;;7.00;91.40;;;;;;5051379;28;20114;-78
2022/03/17 05:03:46;;;;;;;4.35;0.90;;;7.00;91.40;;;;;;5052166;28;20025;-78
2022/03/17 05:06:13;;;;;;;4.80;0.77;;;7.00;91.50;;;;;;5050292;28;20033;-77
2022/03/17 05:08:39;;;;;;;2.63;0.70;;;6.90;91.50;;;;;;5051492;28;20021;-76
2022/03/17 05:11:07;;;;;;;6.63;0.80;;;6.90;91.50;;;;;;5051388;28;20037;-77
2022/03/17 05:13:33;;;;;;;1.90;0.80;;;6.80;91.50;;;;;;5051446;28;20078;-78
2022/03/17 05:15:59;;;;;;;5.78;1.25;;;6.90;91.70;;;;;;5051297;28;20419;-78
2022/03/17 05:18:26;;;;;;;3.55;0.90;;;6.80;91.70;;;;;;5051846;28;20029;-78
2022/03/17 05:20:51;;;;;;;6.22;1.30;;;6.80;91.70;;;;;;5051386;28;20404;-78
2022/03/17 05:23:19;;;;;;;6.18;0.80;;;6.80;91.60;;;;;;5051099;28;20048;-77
2022/03/17 05:25:45;;;;;;;3.22;0.90;;;6.70;91.70;;;;;;5051327;28;20032;-77
2022/03/17 05:28:12;;;;;;;7.25;0.95;;;6.70;91.70;;;;;;5051233;28;20037;-77
2022/03/17 05:30:39;;;;;;;5.18;1.10;;;6.70;91.70;;;;;;5051556;28;20021;-77
2022/03/17 05:33:05;;;;;;;4.72;0.88;;;6.70;91.80;;;;;;5051008;28;20123;-77
2022/03/17 05:35:31;;;;;;;4.75;0.80;;;6.60;91.80;;;;;;5051281;28;20156;-76
2022/03/17 05:37:58;;;;;;;4.72;0.82;;;6.60;91.80;;;;;;5051294;28;20044;-77
2022/03/17 05:40:25;;;;;;;5.53;0.65;;;6.60;91.90;;;;;;5051258;28;20033;-77
2022/03/17 05:42:54;;;;;;;2.85;0.90;;;6.60;91.90;;;;;;5051577;28;20029;-77
2022/03/17 05:45:20;;;;;;;4.07;1.13;;;6.50;91.80;;;;;;5051081;28;20044;-76
2022/03/17 05:47:51;;;;;;;6.50;1.00;;;6.50;91.90;;;;;;5051061;28;20021;-78
2022/03/17 05:50:20;;;;;;;5.47;1.02;;;6.50;92.10;;;;;;5049699;28;20048;-78
2022/03/17 05:52:46;;;;;;;3.10;0.85;;;6.50;92.00;;;;;;5050851;28;20033;-78
2022/03/17 05:55:13;;;;;;;3.63;1.48;;;6.50;92.00;;;;;;5051149;28;20039;-78
2022/03/17 05:57:40;;;;;;;3.20;0.70;;;6.40;92.20;;;;;;5051236;28;20515;-77
2022/03/17 06:00:09;;;;;;;3.35;0.75;;;6.40;92.20;;;;;;5053623;28;20103;-76
2022/03/17 06:02:35;;;;;;;4.70;0.90;;;6.40;92.10;;;;;;5054509;28;20100;-76
2022/03/17 06:05:02;;;;;;;2.70;0.80;;;6.40;92.30;;;;;;5053198;28;20029;-77
2022/03/17 06:07:41;;;;;;;4.50;1.08;;;6.40;92.30;;;;;;5054699;28;20111;-77
2022/03/17 06:10:09;;;;;;;3.72;1.00;;;6.40;92.40;;;;;;5054655;28;20075;-77
2022/03/17 06:12:36;;;;;;;5.28;0.98;;;6.40;92.40;;;;;;5054505;28;20037;-77
2022/03/17 06:15:03;;;;;;;3.22;0.90;;;6.30;92.30;;;;;;5053940;28;20100;-77
2022/03/17 06:17:41;;;;;;;4.90;0.90;;;6.30;92.30;;;;;;5054165;28;20547;-77
2022/03/17 06:20:12;;;;;;;2.20;0.98;;;6.20;92.30;;;;;;5054238;28;20479;-76
2022/03/17 06:22:43;;;;;;;2.50;0.73;;;6.20;92.30;;;;;;5054103;28;20546;-77
2022/03/17 06:25:13;;;;;;;4.25;0.70;;;6.20;92.20;;;;;;5054137;28;20043;-77
2022/03/17 06:27:39;;;;;;;4.35;0.80;;;6.20;92.30;;;;;;5054196;28;20017;-76
2022/03/17 06:30:07;;;;;;;2.67;0.70;;;6.20;92.40;;;;;;5053997;28;20131;-76
2022/03/17 06:32:39;;;;;;;3.55;0.85;;;6.20;92.40;;;;;;5053811;28;20033;-76
2022/03/17 06:35:09;;;;;;;4.55;1.17;;;6.20;92.40;;;;;;5053607;28;20022;-75
2022/03/17 06:37:36;;;;;;;3.53;0.90;;;6.20;92.40;;;;;;5053670;28;20021;-75
2022/03/17 06:40:03;;;;;;;3.63;0.70;;;6.20;92.40;;;;;;5053855;28;20020;-74
2022/03/17 06:42:28;;;;;;;4.65;0.85;;;6.20;92.50;;;;;;5051952;28;20058;-77
2022/03/17 06:44:54;;;;;;;3.80;0.90;;;6.20;92.50;;;;;;5053667;28;20029;-74
2022/03/17 06:47:19;;;;;;;4.65;0.70;;;6.30;92.50;;;;;;5053707;28;20485;-73
2022/03/17 06:49:45;;;;;;;3.42;0.88;;;6.20;92.50;;;;;;5053836;28;20061;-74
2022/03/17 06:52:11;;;;;;;4.80;1.00;;;6.20;92.30;;;;;;5053721;28;20424;-74
2022/03/17 06:54:37;;;;;;;4.93;0.70;;;6.20;92.30;;;;;;5054327;28;20021;-74
2022/03/17 06:57:03;;;;;;;3.35;0.70;;;6.20;92.40;;;;;;5053202;28;20040;-74
2022/03/17 06:59:28;;;;;;;2.95;0.75;;;6.20;92.30;;;;;;5052288;28;20028;-75
2022/03/17 07:01:54;;;;;;;5.28;1.05;;;6.20;92.40;;;;;;5053617;28;20039;-74
2022/03/17 07:04:19;;;;;;;4.07;0.80;;;6.30;92.50;;;;;;5053679;28;20029;-77
2022/03/17 07:06:45;;;;;;;2.85;0.80;;;6.20;92.30;;;;;;5054221;28;20032;-77
2022/03/17 07:09:11;;;;;;;4.38;0.80;;;6.20;92.30;;;;;;5042657;28;20021;-74
2022/03/17 07:11:37;;;;;;;5.22;0.90;;;6.20;92.30;;;;;;5047977;28;20045;-74
2022/03/17 07:14:03;;;;;;;4.75;1.00;;;6.30;92.50;;;;;;5044060;28;20024;-75
2022/03/17 07:16:28;;;;;;;5.15;0.88;;;6.30;92.50;;;;;;5042912;28;20039;-75
2022/03/17 07:18:54;;;;;;;3.92;1.27;;;6.30;92.50;;;;;;5042093;28;20026;-76
2022/03/17 07:21:19;;;;;;;3.95;0.80;;;6.30;92.50;;;;;;5044649;28;20052;-76
2022/03/17 07:23:45;;;;;;;5.50;1.10;;;6.30;92.30;;;;;;5043976;28;20048;-76
2022/03/17 07:26:10;;;;;;;4.18;0.90;;;6.30;92.40;;;;;;5044996;28;20547;-76
2022/03/17 07:28:36;;;;;;;3.08;0.90;;;6.30;92.40;;;;;;5043690;28;20091;-75
2022/03/17 07:31:02;;;;;;;3.70;0.90;;;6.30;92.50;;;;;;5040060;28;20063;-75
2022/03/17 07:33:27;;;;;;;7.28;0.98;;;6.30;92.50;;;;;;5053328;28;20021;-76
2022/03/17 07:35:53;;;;;;;4.70;1.00;;;6.30;92.50;;;;;;5052892;28;20021;-76
2022/03/17 07:38:19;;;;;;;3.55;0.85;;;6.40;92.50;;;;;;5052563;28;20025;-76
2022/03/17 07:40:46;;;;;;;3.20;0.85;;;6.40;92.50;;;;;;5052184;28;20503;-76
2022/03/17 07:43:12;;;;;;;2.63;0.70;;;6.40;92.50;;;;;;5052503;28;20037;-76
2022/03/17 07:45:37;;;;;;;3.25;0.82;;;6.30;92.50;;;;;;5052800;28;20021;-78
2022/03/17 07:48:05;;;;;;;5.35;1.27;;;6.40;92.50;;;;;;5052135;28;20138;-77
2022/03/17 07:50:32;;;;;;;6.78;1.40;;;6.40;92.50;;;;;;5051847;28;20025;-76
2022/03/17 07:52:59;;;;;;;5.70;1.25;;;6.40;92.50;;;;;;5051846;28;20505;-77
2022/03/17 07:55:25;;;;;;;4.10;1.00;;;6.40;92.70;;;;;;5052114;28;20033;-75
2022/03/17 07:57:50;;;;;;;5.43;1.08;;;6.40;92.70;;;;;;5052737;28;20103;-75
2022/03/17 08:00:16;;;;;;;5.47;1.00;;;6.50;92.70;;;;;;5052131;28;20152;-75
2022/03/17 08:02:43;;;;;;;4.78;1.08;;;6.50;92.70;;;;;;5051973;28;20053;-75
2022/03/17 08:05:10;;;;;;;4.53;0.93;;;6.50;92.70;;;;;;5051699;28;20029;-74
2022/03/17 08:07:36;;;;;;;2.85;0.98;;;6.50;92.70;;;;;;5043855;28;20027;-75
2022/03/17 08:10:02;;;;;;;6.30;1.17;;;6.60;92.80;;;;;;5046646;28;20124;-74
2022/03/17 08:12:29;;;;;;;4.40;0.90;;;6.60;92.80;;;;;;5041553;28;20043;-75
2022/03/17 08:14:55;;;;;;;5.57;1.02;;;6.60;92.70;;;;;;5041632;28;20420;-75
2022/03/17 08:17:20;;;;;;;4.45;1.02;;;6.60;92.70;;;;;;5045683;28;20040;-75
2022/03/17 08:19:46;;;;;;;3.80;1.25;;;6.70;92.70;;;;;;5042207;28;20083;-74
2022/03/17 08:22:12;;;;;;;5.55;1.20;;;6.70;92.70;;;;;;5043391;28;20563;-75
2022/03/17 08:24:37;;;;;;;5.80;1.13;;;6.70;92.70;;;;;;5042462;28;20021;-69
2022/03/17 08:27:04;;;;;;;6.40;1.50;;;6.80;92.90;;;;;;5046570;28;20095;-69
2022/03/17 08:29:30;;;;;;;3.85;1.42;;;6.90;92.90;;;;;;5040363;28;20021;-70
2022/03/17 08:31:55;;;;;;;3.60;1.00;;;6.90;92.90;;;;;;5042375;28;20091;-68
2022/03/17 08:34:21;;;;;;;5.70;1.05;;;6.90;92.80;;;;;;5043021;28;20075;-71
2022/03/17 08:36:49;;;;;;;5.32;1.33;;;6.90;92.80;;;;;;5041011;28;20025;-71
2022/03/17 08:39:15;;;;;;;3.10;1.02;;;6.90;92.80;;;;;;5040407;28;20470;-72
2022/03/17 08:41:41;;;;;;;8.82;1.42;;;7.00;92.80;;;;;;5044759;28;20030;-71
2022/03/17 08:44:07;;;;;;;4.00;1.05;;;7.00;92.70;;;;;;5045956;28;20398;-72
2022/03/17 08:49:19;;;;;;;4.82;1.25;;;7.00;92.80;;;;;;5050393;28;20043;-75
2022/03/17 08:51:51;;;;;;;4.50;1.58;;;7.10;92.80;;;;;;5047573;28;20329;-74
2022/03/17 08:54:18;;;;;;;8.57;1.50;;;7.10;92.90;;;;;;5051749;28;20086;-74
2022/03/17 08:56:44;;;;;;;3.72;1.20;;;7.20;93.00;;;;;;5038610;28;20063;-76
2022/03/17 08:59:12;;;;;;;6.80;1.35;;;7.20;92.80;;;;;;5022715;28;20104;-74
2022/03/17 09:01:38;;;;;;;6.25;1.13;;;7.30;92.80;;;;;;5041954;28;20432;-74
2022/03/17 09:04:06;;;;;;;5.43;1.05;;;7.30;92.70;;;;;;5043381;28;20025;-75
2022/03/17 09:06:32;;;;;;;8.43;1.40;;;7.40;92.60;;;;;;5025146;28;20052;-75
2022/03/17 09:08:58;;;;;;;8.40;1.33;;;7.50;92.70;;;;;;5046539;28;20027;-75
2022/03/17 09:11:23;;;;;;;4.28;0.98;;;7.50;92.50;;;;;;5048714;28;20036;-75
2022/03/17 09:13:49;;;;;;;5.18;1.15;;;7.50;92.30;;;;;;5049968;28;20036;-75
2022/03/17 09:16:16;;;;;;;5.30;1.48;;;7.60;92.00;;;;;;5045895;28;20104;-75
2022/03/17 09:18:42;;;;;;;4.57;0.93;;;7.60;91.80;;;;;;5046898;28;20049;-75
2022/03/17 09:21:09;;;;;;;8.35;1.38;;;7.70;92.00;;;;;;5053718;28;20064;-75
2022/03/17 09:23:34;;;;;;;4.55;1.05;;;7.80;92.20;;;;;;5055677;28;20053;-75
2022/03/17 09:26:00;;;;;;;5.63;0.93;;;7.80;91.30;;;;;;5050177;28;20029;-74
2022/03/17 09:28:27;;;;;;;5.18;0.93;;;7.90;91.30;;;;;;5062451;28;20021;-74
2022/03/17 09:30:57;;;;;;;3.85;0.90;;;8.00;91.50;;;;;;5050678;28;20045;-75
2022/03/17 09:33:25;;;;;;;4.47;1.10;;;8.10;90.40;;;;;;5059904;28;20115;-76
2022/03/17 09:35:52;;;;;;;6.35;1.30;;;8.20;90.70;;;;;;5057241;28;20021;-77
2022/03/17 09:38:18;;;;;;;9.20;1.20;;;8.30;90.40;;;;;;5054420;28;20029;-75
2022/03/17 09:40:45;;;;;;;5.15;0.90;;;8.30;90.60;;;;;;5065953;28;20036;-75
2022/03/17 09:43:19;;;;;;;6.53;1.10;;;8.40;90.00;;;;;;5053909;28;20043;-76
2022/03/17 09:45:57;;;;;;;6.90;1.23;;;8.40;90.00;;;;;;5050432;28;20428;-76
2022/03/17 09:48:25;;;;;;;5.82;1.00;;;8.40;87.00;;;;;;5073010;28;20063;-75
2022/03/17 09:50:56;;;;;;;5.75;0.73;;;8.60;88.00;;;;;;5048013;28;20037;-75
2022/03/17 09:53:23;;;;;;;6.13;0.90;;;8.60;86.40;;;;;;5061051;28;20056;-75
2022/03/17 09:55:50;;;;;;;7.25;1.00;;;8.70;88.60;;;;;;5052927;28;20037;-75
2022/03/17 09:58:16;;;;;;;4.03;0.88;;;8.70;88.10;;;;;;5065826;28;20051;-75
2022/03/17 10:00:48;;;;;;;4.88;0.90;;;8.80;86.50;;;;;;5056678;28;20064;-75
2022/03/17 10:03:19;;;;;;;3.90;0.90;;;8.80;86.20;;;;;;5059398;28;20516;-76
2022/03/17 10:05:47;;;;;;;3.47;0.60;;;8.90;85.30;;;;;;5057099;28;20029;-75
2022/03/17 10:08:17;;;;;;;3.90;0.85;;;9.00;85.50;;;;;;5053762;28;20036;-75
2022/03/17 10:10:43;;;;;;;3.38;0.60;;;9.00;83.80;;;;;;5065563;28;20017;-75
2022/03/17 10:13:18;;;;;;;4.30;0.90;;;9.10;82.20;;;;;;5052407;28;20151;-76
2022/03/17 10:16:05;;;;;;;3.38;0.65;;;9.20;82.20;;;;;;5065056;28;20020;-75
2022/03/17 10:18:30;;;;;;;3.17;0.80;;;9.20;81.10;;;;;;5052163;28;20503;-75
2022/03/17 10:21:07;;;;;;;2.65;0.70;;;9.20;81.20;;;;;;5057744;28;20024;-75
2022/03/17 10:23:42;;;;;;;6.80;0.93;;;9.30;81.90;;;;;;5057587;28;20516;-75
2022/03/17 10:26:07;;;;;;;5.88;1.10;;;9.40;81.20;;;;;;5053456;28;20040;-74
2022/03/17 10:28:33;;;;;;;2.33;0.60;;;9.50;81.50;;;;;;5065063;28;20029;-76
2022/03/17 10:31:07;;;;;;;4.38;0.70;;;9.50;79.20;;;;;;5053269;28;20066;-76
2022/03/17 10:33:33;;;;;;;2.13;0.60;;;9.50;78.20;;;;;;5061121;28;20032;-75
2022/03/17 10:36:21;;;;;;;2.70;0.82;;;9.60;78.10;;;;;;5054213;28;20032;-75
2022/03/17 10:38:49;;;;;;;4.55;0.60;;;9.70;77.70;;;;;;5058410;28;20518;-76
2022/03/17 10:41:15;;;;;;;2.47;0.63;;;9.70;77.80;;;;;;5060887;28;20025;-76
2022/03/17 10:43:42;;;;;;;4.65;0.73;;;9.70;74.90;;;;;;5052884;28;20036;-76
2022/03/17 10:46:22;;;;;;;3.85;0.55;;;9.70;71.90;;;;;;5062577;28;20029;-75
2022/03/17 10:49:01;;;;;;;2.65;0.70;;;9.80;75.40;;;;;;5060277;28;20066;-74
2022/03/17 10:51:37;;;;;;;4.18;0.75;;;9.90;75.60;;;;;;5061560;28;20117;-74
2022/03/17 10:54:07;;;;;;;3.45;0.70;;;10.00;74.70;;;;;;5054483;28;20032;-75
2022/03/17 10:56:38;;;;;;;2.60;0.68;;;10.00;74.50;;;;;;5053940;28;20722;-74
2022/03/17 10:59:06;;;;;;;2.22;0.60;;;10.10;75.10;;;;;;5062303;28;20066;-75
2022/03/17 11:01:45;;;;;;;3.13;0.77;;;10.10;73.00;;;;;;5054649;28;20024;-75
2022/03/17 11:04:11;;;;;;;2.03;0.52;;;10.10;72.60;;;;;;5062880;28;20033;-76
2022/03/17 11:06:38;;;;;;;3.35;0.73;;;10.10;73.30;;;;;;5053159;28;20031;-75
2022/03/17 11:09:05;;;;;;;1.92;0.55;;;10.10;72.90;;;;;;5058096;28;20702;-75
2022/03/17 11:11:31;;;;;;;2.60;0.70;;;10.10;73.00;;;;;;5058054;28;20120;-75
2022/03/17 11:13:59;;;;;;;1.75;0.70;;;10.20;73.10;;;;;;5052204;28;20116;-74
2022/03/17 11:16:41;;;;;;;3.15;0.73;;;10.30;73.20;;;;;;5064003;28;20099;-75
2022/03/17 11:19:13;;;;;;;2.95;0.57;;;10.30;71.50;;;;;;5052182;28;20024;-74
2022/03/17 11:21:43;;;;;;;1.90;0.52;;;10.30;73.10;;;;;;5057580;28;20028;-74
2022/03/17 11:24:19;;;;;;;2.67;0.68;;;10.40;70.50;;;;;;5054443;28;20080;-75
2022/03/17 11:26:45;;;;;;;1.05;0.35;;;10.50;72.20;;;;;;5058542;28;20507;-75
2022/03/17 11:29:18;;;;;;;2.40;0.50;;;10.50;70.00;;;;;;5064415;28;20512;-75
2022/03/17 11:31:51;;;;;;;;;;;10.50;71.10;;;;;;5055671;28;20044;-75
2022/03/17 11:34:43;;;;;;;2.85;0.60;;;10.60;72.20;;;;;;5063843;28;19936;-76
2022/03/17 11:37:15;;;;;;;2.20;0.60;;;10.50;71.60;;;;;;5048831;28;20107;-76
2022/03/17 11:39:54;;;;;;;1.13;0.43;;;10.60;71.00;;;;;;5055052;28;20396;-76
2022/03/17 11:42:56;;;;;;;1.42;0.55;;;10.70;68.50;;;;;;5054262;28;20476;-75
2022/03/17 11:45:22;;;;;;;2.33;0.50;;;10.70;69.80;;;;;;5059387;28;20036;-75
2022/03/17 11:47:53;;;;;;;1.60;0.57;;;10.70;67.40;;;;;;5059086;28;20025;-75
2022/03/17 11:50:38;;;;;;;2.08;0.52;;;10.80;67.90;;;;;;5055130;28;20034;-74
2022/03/17 11:53:05;;;;;;;2.28;0.65;;;10.90;68.10;;;;;;5043811;28;20036;-75
2022/03/17 11:55:32;;;;;;;3.42;0.63;;;10.90;67.00;;;;;;5053513;28;20025;-75
2022/03/17 11:58:16;;;;;;;2.85;0.60;;;10.90;66.90;;;;;;5063742;28;20492;-76
2022/03/17 12:00:52;;;;;;;2.42;0.57;;;11.10;67.60;;;;;;5040889;28;20025;-76
2022/03/17 12:03:50;;;;;;;3.47;0.70;;;11.00;64.40;;;;;;5058504;28;20032;-75
2022/03/17 12:06:27;;;;;;;3.33;0.63;;;11.10;66.80;;;;;;5051176;28;20025;-77
2022/03/17 12:09:04;;;;;;;2.38;0.70;;;11.10;66.70;;;;;;5052427;28;20435;-79
2022/03/17 12:11:47;;;;;;;3.58;0.77;;;11.10;67.40;;;;;;5057213;28;20124;-76
2022/03/17 12:14:23;;;;;;;3.03;0.70;;;11.10;66.90;;;;;;5050473;28;20029;-74
2022/03/17 12:17:19;;;;;;;2.22;0.70;;;11.10;63.20;;;;;;5038625;28;20099;-76
2022/03/17 12:20:02;;;;;;;2.63;0.60;;;11.20;66.80;;;;;;5045189;28;20047;-78
2022/03/17 12:22:39;;;;;;;2.65;0.85;;;11.20;67.10;;;;;;5059173;28;20049;-76
2022/03/17 12:25:08;;;;;;;2.72;0.60;;;11.40;67.40;;;;;;5050131;28;20024;-77
2022/03/17 12:27:35;;;;;;;2.15;0.70;;;11.30;66.30;;;;;;5060550;28;20044;-77
2022/03/17 12:30:07;;;;;;;3.92;0.70;;;11.30;66.40;;;;;;5052066;28;20079;-83
2022/03/17 12:32:38;;;;;;;4.63;0.93;;;11.30;64.80;;;;;;5051209;28;20037;-75
2022/03/17 12:35:05;;;;;;;3.08;0.77;;;11.30;65.00;;;;;;5060623;28;20029;-75
2022/03/17 12:37:33;;;;;;;1.80;0.60;;;11.40;66.60;;;;;;5050846;28;20040;-74
2022/03/17 12:40:04;;;;;;;2.17;0.70;;;11.40;66.20;;;;;;5063008;28;20070;-74
2022/03/17 12:42:36;;;;;;;2.55;0.52;;;11.40;66.90;;;;;;5053907;28;20021;-75
2022/03/17 12:45:06;;;;;;;2.13;0.80;;;11.50;68.10;;;;;;5055869;28;20037;-75
2022/03/17 12:47:34;;;;;;;4.50;0.93;;;11.50;65.30;;;;;;5056517;28;20516;-77
2022/03/17 12:50:04;;;;;;;3.83;0.68;;;11.50;64.80;;;;;;5050563;28;20021;-75
2022/03/17 12:52:32;;;;;;;3.35;1.00;;;11.60;65.90;;;;;;5062247;28;20029;-80
2022/03/17 12:54:59;;;;;;;3.47;0.90;;;11.60;65.80;;;;;;5050353;28;20563;-78
2022/03/17 12:57:27;;;;;;;2.97;1.13;;;11.60;66.90;;;;;;5059513;28;20056;-75
2022/03/17 12:59:53;;;;;;;2.53;0.70;;;11.60;66.40;;;;;;5052892;28;20094;-77
2022/03/17 13:02:20;;;;;;;1.77;0.70;;;11.70;65.30;;;;;;5052584;28;20029;-78
2022/03/17 13:04:49;;;;;;;3.03;0.73;;;11.70;64.80;;;;;;5062315;28;20021;-79
2022/03/17 13:07:15;;;;;;;2.63;0.80;;;11.70;64.20;;;;;;5047427;28;20032;-79
2022/03/17 13:09:42;;;;;;;3.13;0.80;;;11.70;66.20;;;;;;5068323;28;20477;-76
2022/03/17 13:15:16;;;;;;;3.42;0.90;;;11.90;63.80;;;;;;5062234;28;20137;-77
2022/03/17 13:17:44;;;;;;;2.60;0.90;;;12.00;63.20;;;;;;5061737;28;20119;-77
2022/03/17 13:20:25;;;;;;;2.33;0.75;;;11.90;64.10;;;;;;5055683;28;20400;-77